sensor_id;sensor_type;location;lat;lon;timestamp;P1;durP1;ratioP1;P2;durP2;ratioP2
36551;SDS011;22559;54.176;12.102;2022-11-04T00:01:38;6.67;;;4.37;;
36551;SDS011;22559;54.176;12.102;2022-11-04T00:04:05;5.30;;;3.90;;
36551;SDS011;22559;54.176;12.102;2022-11-04T00:06:32;7.83;;;4.03;;
36551;SDS011;22559;54.176;12.102;2022-11-04T00:08:58;11.13;;;4.40;;
36551;SDS011;22559;54.176;12.102;2022-11-04T00:11:25;5.57;;;4.07;;
36551;SDS011;22559;54.176;12.102;2022-11-04T00:14:10;6.13;;;4.03;;
36551;SDS011;22559;54.176;12.102;2022-11-04T00:16:38;6.50;;;4.60;;
36551;SDS011;22559;54.176;12.102;2022-11-04T00:19:23;9.87;;;4.37;;
36551;SDS011;22559;54.176;12.102;2022-11-04T00:21:49;7.30;;;4.40;;
36551;SDS011;22559;54.176;12.102;2022-11-04T00:24:33;7.13;;;4.53;;
36551;SDS011;22559;54.176;12.102;2022-11-04T00:27:11;7.77;;;4.80;;
36551;SDS011;22559;54.176;12.102;2022-11-04T00:29:55;9.90;;;4.97;;
36551;SDS011;22559;54.176;12.102;2022-11-04T00:32:21;7.00;;;4.30;;
36551;SDS011;22559;54.176;12.102;2022-11-04T00:35:06;7.83;;;4.07;;
36551;SDS011;22559;54.176;12.102;2022-11-04T00:37:42;8.17;;;3.93;;
36551;SDS011;22559;54.176;12.102;2022-11-04T00:40:09;4.53;;;4.07;;
36551;SDS011;22559;54.176;12.102;2022-11-04T00:42:37;8.20;;;4.63;;
36551;SDS011;22559;54.176;12.102;2022-11-04T00:45:03;11.03;;;5.10;;
36551;SDS011;22559;54.176;12.102;2022-11-04T00:47:29;8.93;;;4.40;;
36551;SDS011;22559;54.176;12.102;2022-11-04T00:49:55;6.90;;;4.40;;
36551;SDS011;22559;54.176;12.102;2022-11-04T00:52:21;6.57;;;4.50;;
36551;SDS011;22559;54.176;12.102;2022-11-04T00:54:47;5.00;;;4.17;;
36551;SDS011;22559;54.176;12.102;2022-11-04T00:57:12;9.17;;;4.37;;
36551;SDS011;22559;54.176;12.102;2022-11-04T00:59:39;8.10;;;4.40;;
36551;SDS011;22559;54.176;12.102;2022-11-04T01:02:06;8.10;;;4.93;;
36551;SDS011;22559;54.176;12.102;2022-11-04T01:04:32;5.90;;;3.90;;
36551;SDS011;22559;54.176;12.102;2022-11-04T01:06:58;10.27;;;4.43;;
36551;SDS011;22559;54.176;12.102;2022-11-04T01:09:24;6.90;;;4.20;;
36551;SDS011;22559;54.176;12.102;2022-11-04T01:11:50;8.47;;;4.50;;
36551;SDS011;22559;54.176;12.102;2022-11-04T01:14:16;9.10;;;4.90;;
36551;SDS011;22559;54.176;12.102;2022-11-04T01:16:42;5.13;;;3.93;;
36551;SDS011;22559;54.176;12.102;2022-11-04T01:19:08;11.80;;;4.90;;
36551;SDS011;22559;54.176;12.102;2022-11-04T01:21:34;5.93;;;4.30;;
36551;SDS011;22559;54.176;12.102;2022-11-04T01:24:00;7.30;;;5.40;;
36551;SDS011;22559;54.176;12.102;2022-11-04T01:26:26;7.70;;;4.93;;
36551;SDS011;22559;54.176;12.102;2022-11-04T01:28:52;9.77;;;5.10;;
36551;SDS011;22559;54.176;12.102;2022-11-04T01:31:21;9.43;;;5.07;;
36551;SDS011;22559;54.176;12.102;2022-11-04T01:33:52;8.27;;;5.17;;
36551;SDS011;22559;54.176;12.102;2022-11-04T01:36:18;8.67;;;4.80;;
36551;SDS011;22559;54.176;12.102;2022-11-04T01:38:45;9.13;;;4.80;;
36551;SDS011;22559;54.176;12.102;2022-11-04T01:41:21;10.13;;;4.80;;
36551;SDS011;22559;54.176;12.102;2022-11-04T01:46:24;9.90;;;5.33;;
36551;SDS011;22559;54.176;12.102;2022-11-04T01:51:41;10.77;;;5.10;;
36551;SDS011;22559;54.176;12.102;2022-11-04T01:54:09;9.40;;;5.33;;
36551;SDS011;22559;54.176;12.102;2022-11-04T01:56:35;8.37;;;5.30;;
36551;SDS011;22559;54.176;12.102;2022-11-04T01:59:05;11.17;;;5.40;;
36551;SDS011;22559;54.176;12.102;2022-11-04T02:01:33;8.57;;;4.93;;
36551;SDS011;22559;54.176;12.102;2022-11-04T02:03:59;9.33;;;5.53;;
36551;SDS011;22559;54.176;12.102;2022-11-04T02:06:46;6.87;;;5.37;;
36551;SDS011;22559;54.176;12.102;2022-11-04T02:09:13;9.67;;;5.30;;
36551;SDS011;22559;54.176;12.102;2022-11-04T02:11:39;9.57;;;5.10;;
36551;SDS011;22559;54.176;12.102;2022-11-04T02:14:24;8.90;;;4.93;;
36551;SDS011;22559;54.176;12.102;2022-11-04T02:16:49;7.77;;;5.23;;
36551;SDS011;22559;54.176;12.102;2022-11-04T02:30:23;7.03;;;5.50;;
36551;SDS011;22559;54.176;12.102;2022-11-04T02:49:13;10.47;;;5.90;;
36551;SDS011;22559;54.176;12.102;2022-11-04T02:51:51;9.60;;;5.67;;
36551;SDS011;22559;54.176;12.102;2022-11-04T02:56:52;11.47;;;6.27;;
36551;SDS011;22559;54.176;12.102;2022-11-04T02:59:30;10.27;;;6.10;;
36551;SDS011;22559;54.176;12.102;2022-11-04T03:02:01;6.53;;;5.43;;
36551;SDS011;22559;54.176;12.102;2022-11-04T03:04:32;11.13;;;6.30;;
36551;SDS011;22559;54.176;12.102;2022-11-04T03:07:01;11.97;;;5.23;;
36551;SDS011;22559;54.176;12.102;2022-11-04T03:09:29;9.67;;;5.97;;
36551;SDS011;22559;54.176;12.102;2022-11-04T03:11:57;10.40;;;5.93;;
36551;SDS011;22559;54.176;12.102;2022-11-04T03:14:41;11.13;;;6.17;;
36551;SDS011;22559;54.176;12.102;2022-11-04T03:17:18;11.03;;;6.23;;
36551;SDS011;22559;54.176;12.102;2022-11-04T03:19:55;7.67;;;6.30;;
36551;SDS011;22559;54.176;12.102;2022-11-04T03:22:24;10.27;;;6.07;;
36551;SDS011;22559;54.176;12.102;2022-11-04T03:24:52;11.20;;;6.60;;
36551;SDS011;22559;54.176;12.102;2022-11-04T03:27:23;8.87;;;6.17;;
36551;SDS011;22559;54.176;12.102;2022-11-04T03:30:05;8.80;;;6.13;;
36551;SDS011;22559;54.176;12.102;2022-11-04T03:33:04;10.07;;;6.17;;
36551;SDS011;22559;54.176;12.102;2022-11-04T03:35:43;10.33;;;6.27;;
36551;SDS011;22559;54.176;12.102;2022-11-04T03:38:08;11.23;;;6.17;;
36551;SDS011;22559;54.176;12.102;2022-11-04T03:40:34;12.53;;;7.13;;
36551;SDS011;22559;54.176;12.102;2022-11-04T03:43:43;10.57;;;6.27;;
36551;SDS011;22559;54.176;12.102;2022-11-04T03:45:52;8.50;;;6.57;;
36551;SDS011;22559;54.176;12.102;2022-11-04T03:48:18;10.50;;;6.83;;
36551;SDS011;22559;54.176;12.102;2022-11-04T03:50:45;14.90;;;7.30;;
36551;SDS011;22559;54.176;12.102;2022-11-04T03:53:12;14.70;;;7.57;;
36551;SDS011;22559;54.176;12.102;2022-11-04T03:58:47;11.97;;;6.87;;
36551;SDS011;22559;54.176;12.102;2022-11-04T04:01:50;9.47;;;6.67;;
36551;SDS011;22559;54.176;12.102;2022-11-04T04:07:15;13.23;;;7.13;;
36551;SDS011;22559;54.176;12.102;2022-11-04T04:09:45;11.87;;;6.97;;
36551;SDS011;22559;54.176;12.102;2022-11-04T04:12:51;11.77;;;7.27;;
36551;SDS011;22559;54.176;12.102;2022-11-04T04:15:22;12.97;;;6.83;;
36551;SDS011;22559;54.176;12.102;2022-11-04T04:17:53;10.43;;;7.10;;
36551;SDS011;22559;54.176;12.102;2022-11-04T04:20:23;10.00;;;6.57;;
36551;SDS011;22559;54.176;12.102;2022-11-04T04:23:00;10.83;;;7.30;;
36551;SDS011;22559;54.176;12.102;2022-11-04T04:25:53;11.77;;;6.97;;
36551;SDS011;22559;54.176;12.102;2022-11-04T04:28:40;8.43;;;6.47;;
36551;SDS011;22559;54.176;12.102;2022-11-04T04:31:07;11.13;;;6.87;;
36551;SDS011;22559;54.176;12.102;2022-11-04T04:33:35;12.57;;;6.97;;
36551;SDS011;22559;54.176;12.102;2022-11-04T04:36:02;12.07;;;6.60;;
36551;SDS011;22559;54.176;12.102;2022-11-04T04:38:30;14.00;;;7.03;;
36551;SDS011;22559;54.176;12.102;2022-11-04T04:41:26;10.20;;;6.80;;
36551;SDS011;22559;54.176;12.102;2022-11-04T04:44:20;10.13;;;6.97;;
36551;SDS011;22559;54.176;12.102;2022-11-04T04:47:10;9.13;;;6.83;;
36551;SDS011;22559;54.176;12.102;2022-11-04T04:49:52;10.20;;;6.77;;
36551;SDS011;22559;54.176;12.102;2022-11-04T04:52:20;11.83;;;6.87;;
36551;SDS011;22559;54.176;12.102;2022-11-04T04:54:47;12.60;;;7.10;;
36551;SDS011;22559;54.176;12.102;2022-11-04T04:57:13;11.53;;;6.63;;
36551;SDS011;22559;54.176;12.102;2022-11-04T04:59:38;10.17;;;6.33;;
36551;SDS011;22559;54.176;12.102;2022-11-04T05:02:04;9.10;;;6.53;;
36551;SDS011;22559;54.176;12.102;2022-11-04T05:04:30;11.70;;;7.03;;
36551;SDS011;22559;54.176;12.102;2022-11-04T05:06:55;12.77;;;6.70;;
36551;SDS011;22559;54.176;12.102;2022-11-04T05:09:21;11.10;;;7.33;;
36551;SDS011;22559;54.176;12.102;2022-11-04T05:11:46;12.70;;;7.80;;
36551;SDS011;22559;54.176;12.102;2022-11-04T05:14:12;12.40;;;7.37;;
36551;SDS011;22559;54.176;12.102;2022-11-04T05:16:38;9.73;;;6.53;;
36551;SDS011;22559;54.176;12.102;2022-11-04T05:19:03;13.23;;;7.00;;
36551;SDS011;22559;54.176;12.102;2022-11-04T05:21:29;10.97;;;7.07;;
36551;SDS011;22559;54.176;12.102;2022-11-04T05:23:54;12.93;;;7.90;;
36551;SDS011;22559;54.176;12.102;2022-11-04T05:26:20;13.47;;;7.87;;
36551;SDS011;22559;54.176;12.102;2022-11-04T05:28:46;12.93;;;6.70;;
36551;SDS011;22559;54.176;12.102;2022-11-04T05:31:11;9.23;;;7.47;;
36551;SDS011;22559;54.176;12.102;2022-11-04T05:33:37;11.30;;;7.00;;
36551;SDS011;22559;54.176;12.102;2022-11-04T05:36:09;13.27;;;7.07;;
36551;SDS011;22559;54.176;12.102;2022-11-04T05:38:37;8.20;;;6.83;;
36551;SDS011;22559;54.176;12.102;2022-11-04T05:41:03;12.40;;;7.50;;
36551;SDS011;22559;54.176;12.102;2022-11-04T05:43:29;9.70;;;6.77;;
36551;SDS011;22559;54.176;12.102;2022-11-04T05:45:57;12.70;;;7.30;;
36551;SDS011;22559;54.176;12.102;2022-11-04T05:48:23;13.03;;;7.40;;
36551;SDS011;22559;54.176;12.102;2022-11-04T05:50:49;12.80;;;7.03;;
36551;SDS011;22559;54.176;12.102;2022-11-04T05:53:15;11.53;;;6.87;;
36551;SDS011;22559;54.176;12.102;2022-11-04T05:55:40;9.70;;;6.50;;
36551;SDS011;22559;54.176;12.102;2022-11-04T05:58:06;12.10;;;7.07;;
36551;SDS011;22559;54.176;12.102;2022-11-04T06:00:32;11.50;;;6.53;;
36551;SDS011;22559;54.176;12.102;2022-11-04T06:02:57;11.20;;;6.87;;
36551;SDS011;22559;54.176;12.102;2022-11-04T06:05:23;13.23;;;7.00;;
36551;SDS011;22559;54.176;12.102;2022-11-04T06:07:50;9.47;;;6.93;;
36551;SDS011;22559;54.176;12.102;2022-11-04T06:10:15;12.57;;;7.00;;
36551;SDS011;22559;54.176;12.102;2022-11-04T06:12:41;11.43;;;8.03;;
36551;SDS011;22559;54.176;12.102;2022-11-04T06:15:07;10.60;;;7.20;;
36551;SDS011;22559;54.176;12.102;2022-11-04T06:17:33;8.83;;;6.80;;
36551;SDS011;22559;54.176;12.102;2022-11-04T06:19:59;12.87;;;7.43;;
36551;SDS011;22559;54.176;12.102;2022-11-04T06:22:24;10.67;;;6.77;;
36551;SDS011;22559;54.176;12.102;2022-11-04T06:24:50;9.43;;;7.10;;
36551;SDS011;22559;54.176;12.102;2022-11-04T06:27:15;11.80;;;7.20;;
36551;SDS011;22559;54.176;12.102;2022-11-04T06:29:41;9.70;;;7.47;;
36551;SDS011;22559;54.176;12.102;2022-11-04T06:32:11;11.07;;;7.47;;
36551;SDS011;22559;54.176;12.102;2022-11-04T06:34:38;12.33;;;7.40;;
36551;SDS011;22559;54.176;12.102;2022-11-04T06:37:04;11.97;;;8.23;;
36551;SDS011;22559;54.176;12.102;2022-11-04T06:39:30;10.63;;;7.37;;
36551;SDS011;22559;54.176;12.102;2022-11-04T06:41:55;10.80;;;7.77;;
36551;SDS011;22559;54.176;12.102;2022-11-04T06:44:21;13.07;;;7.37;;
36551;SDS011;22559;54.176;12.102;2022-11-04T06:46:48;12.60;;;7.57;;
36551;SDS011;22559;54.176;12.102;2022-11-04T06:49:17;10.10;;;7.83;;
36551;SDS011;22559;54.176;12.102;2022-11-04T06:51:44;12.17;;;7.70;;
36551;SDS011;22559;54.176;12.102;2022-11-04T06:54:10;11.97;;;7.63;;
36551;SDS011;22559;54.176;12.102;2022-11-04T06:56:37;10.07;;;7.47;;
36551;SDS011;22559;54.176;12.102;2022-11-04T06:59:04;12.40;;;8.13;;
36551;SDS011;22559;54.176;12.102;2022-11-04T07:01:31;10.37;;;8.13;;
36551;SDS011;22559;54.176;12.102;2022-11-04T07:03:59;12.03;;;7.27;;
36551;SDS011;22559;54.176;12.102;2022-11-04T07:06:26;12.53;;;8.00;;
36551;SDS011;22559;54.176;12.102;2022-11-04T07:08:58;12.20;;;8.53;;
36551;SDS011;22559;54.176;12.102;2022-11-04T07:11:25;14.63;;;8.87;;
36551;SDS011;22559;54.176;12.102;2022-11-04T07:13:53;13.93;;;8.43;;
36551;SDS011;22559;54.176;12.102;2022-11-04T07:16:18;12.13;;;7.93;;
36551;SDS011;22559;54.176;12.102;2022-11-04T07:18:44;13.77;;;9.33;;
36551;SDS011;22559;54.176;12.102;2022-11-04T07:21:10;17.87;;;9.83;;
36551;SDS011;22559;54.176;12.102;2022-11-04T07:23:36;12.47;;;8.93;;
36551;SDS011;22559;54.176;12.102;2022-11-04T07:26:03;12.13;;;8.93;;
36551;SDS011;22559;54.176;12.102;2022-11-04T07:28:31;17.67;;;8.90;;
36551;SDS011;22559;54.176;12.102;2022-11-04T07:30:57;15.53;;;8.83;;
36551;SDS011;22559;54.176;12.102;2022-11-04T07:33:25;15.50;;;9.43;;
36551;SDS011;22559;54.176;12.102;2022-11-04T07:35:51;15.47;;;9.70;;
36551;SDS011;22559;54.176;12.102;2022-11-04T07:38:17;17.77;;;9.83;;
36551;SDS011;22559;54.176;12.102;2022-11-04T07:40:44;12.67;;;8.87;;
36551;SDS011;22559;54.176;12.102;2022-11-04T07:43:10;15.57;;;9.40;;
36551;SDS011;22559;54.176;12.102;2022-11-04T07:45:35;13.47;;;10.00;;
36551;SDS011;22559;54.176;12.102;2022-11-04T07:48:01;17.73;;;10.47;;
36551;SDS011;22559;54.176;12.102;2022-11-04T07:50:27;18.73;;;10.90;;
36551;SDS011;22559;54.176;12.102;2022-11-04T07:52:52;17.37;;;10.23;;
36551;SDS011;22559;54.176;12.102;2022-11-04T07:55:18;15.03;;;10.40;;
36551;SDS011;22559;54.176;12.102;2022-11-04T07:57:44;12.37;;;9.60;;
36551;SDS011;22559;54.176;12.102;2022-11-04T08:00:11;15.40;;;10.63;;
36551;SDS011;22559;54.176;12.102;2022-11-04T08:02:39;16.87;;;10.60;;
36551;SDS011;22559;54.176;12.102;2022-11-04T08:05:05;15.63;;;10.67;;
36551;SDS011;22559;54.176;12.102;2022-11-04T08:07:31;15.00;;;10.27;;
36551;SDS011;22559;54.176;12.102;2022-11-04T08:09:57;18.17;;;11.53;;
36551;SDS011;22559;54.176;12.102;2022-11-04T08:12:22;20.50;;;11.93;;
36551;SDS011;22559;54.176;12.102;2022-11-04T08:14:49;17.50;;;10.93;;
36551;SDS011;22559;54.176;12.102;2022-11-04T08:17:15;15.03;;;10.60;;
36551;SDS011;22559;54.176;12.102;2022-11-04T08:19:41;17.10;;;10.47;;
36551;SDS011;22559;54.176;12.102;2022-11-04T08:22:07;15.33;;;10.90;;
36551;SDS011;22559;54.176;12.102;2022-11-04T08:24:33;14.70;;;9.50;;
36551;SDS011;22559;54.176;12.102;2022-11-04T08:26:59;17.53;;;10.27;;
36551;SDS011;22559;54.176;12.102;2022-11-04T08:29:25;14.40;;;9.80;;
36551;SDS011;22559;54.176;12.102;2022-11-04T08:31:51;15.00;;;10.13;;
36551;SDS011;22559;54.176;12.102;2022-11-04T08:34:16;14.93;;;9.43;;
36551;SDS011;22559;54.176;12.102;2022-11-04T08:36:42;11.03;;;8.57;;
36551;SDS011;22559;54.176;12.102;2022-11-04T08:39:09;13.17;;;8.93;;
36551;SDS011;22559;54.176;12.102;2022-11-04T08:41:35;13.70;;;9.00;;
36551;SDS011;22559;54.176;12.102;2022-11-04T08:44:02;13.37;;;8.70;;
36551;SDS011;22559;54.176;12.102;2022-11-04T08:46:31;13.20;;;8.77;;
36551;SDS011;22559;54.176;12.102;2022-11-04T08:48:59;14.67;;;9.23;;
36551;SDS011;22559;54.176;12.102;2022-11-04T08:51:25;13.63;;;9.07;;
36551;SDS011;22559;54.176;12.102;2022-11-04T08:53:52;13.27;;;8.47;;
36551;SDS011;22559;54.176;12.102;2022-11-04T08:58:45;11.20;;;8.40;;
36551;SDS011;22559;54.176;12.102;2022-11-04T09:01:10;14.37;;;8.50;;
36551;SDS011;22559;54.176;12.102;2022-11-04T09:03:37;11.50;;;8.20;;
36551;SDS011;22559;54.176;12.102;2022-11-04T09:06:14;13.37;;;7.63;;
36551;SDS011;22559;54.176;12.102;2022-11-04T09:08:51;12.07;;;8.40;;
36551;SDS011;22559;54.176;12.102;2022-11-04T09:11:21;11.10;;;7.97;;
36551;SDS011;22559;54.176;12.102;2022-11-04T09:13:46;13.07;;;9.60;;
36551;SDS011;22559;54.176;12.102;2022-11-04T09:16:12;12.67;;;8.53;;
36551;SDS011;22559;54.176;12.102;2022-11-04T09:18:38;13.60;;;8.57;;
36551;SDS011;22559;54.176;12.102;2022-11-04T09:21:05;12.67;;;7.73;;
36551;SDS011;22559;54.176;12.102;2022-11-04T09:23:32;11.87;;;7.77;;
36551;SDS011;22559;54.176;12.102;2022-11-04T09:26:02;11.33;;;7.60;;
36551;SDS011;22559;54.176;12.102;2022-11-04T09:28:30;10.80;;;7.83;;
36551;SDS011;22559;54.176;12.102;2022-11-04T09:30:55;11.13;;;8.27;;
36551;SDS011;22559;54.176;12.102;2022-11-04T09:33:22;13.63;;;7.90;;
36551;SDS011;22559;54.176;12.102;2022-11-04T09:35:56;13.83;;;8.63;;
36551;SDS011;22559;54.176;12.102;2022-11-04T09:38:22;9.80;;;7.77;;
36551;SDS011;22559;54.176;12.102;2022-11-04T09:40:49;10.10;;;8.03;;
36551;SDS011;22559;54.176;12.102;2022-11-04T09:45:59;8.43;;;6.87;;
36551;SDS011;22559;54.176;12.102;2022-11-04T09:51:02;9.97;;;7.20;;
36551;SDS011;22559;54.176;12.102;2022-11-04T09:53:39;18.53;;;8.37;;
36551;SDS011;22559;54.176;12.102;2022-11-04T09:56:16;14.37;;;6.97;;
36551;SDS011;22559;54.176;12.102;2022-11-04T09:58:48;8.13;;;6.10;;
36551;SDS011;22559;54.176;12.102;2022-11-04T10:03:56;8.20;;;6.37;;
36551;SDS011;22559;54.176;12.102;2022-11-04T10:09:35;11.93;;;6.07;;
36551;SDS011;22559;54.176;12.102;2022-11-04T10:23:44;10.07;;;5.80;;
36551;SDS011;22559;54.176;12.102;2022-11-04T10:27:08;7.90;;;6.47;;
36551;SDS011;22559;54.176;12.102;2022-11-04T10:32:08;8.90;;;5.97;;
36551;SDS011;22559;54.176;12.102;2022-11-04T10:34:46;6.87;;;5.30;;
36551;SDS011;22559;54.176;12.102;2022-11-04T10:37:17;6.00;;;5.40;;
36551;SDS011;22559;54.176;12.102;2022-11-04T10:39:43;6.87;;;5.93;;
36551;SDS011;22559;54.176;12.102;2022-11-04T10:42:11;5.40;;;4.90;;
36551;SDS011;22559;54.176;12.102;2022-11-04T10:44:40;6.47;;;5.23;;
36551;SDS011;22559;54.176;12.102;2022-11-04T10:52:31;6.30;;;5.37;;
36551;SDS011;22559;54.176;12.102;2022-11-04T10:54:58;5.13;;;4.73;;
36551;SDS011;22559;54.176;12.102;2022-11-04T10:57:24;5.30;;;4.80;;
36551;SDS011;22559;54.176;12.102;2022-11-04T10:59:54;5.20;;;4.60;;
36551;SDS011;22559;54.176;12.102;2022-11-04T11:07:37;5.50;;;4.03;;
36551;SDS011;22559;54.176;12.102;2022-11-04T11:10:03;4.27;;;3.80;;
36551;SDS011;22559;54.176;12.102;2022-11-04T11:12:29;5.07;;;3.90;;
36551;SDS011;22559;54.176;12.102;2022-11-04T11:15:03;4.53;;;4.13;;
36551;SDS011;22559;54.176;12.102;2022-11-04T11:18:12;5.13;;;3.77;;
36551;SDS011;22559;54.176;12.102;2022-11-04T11:20:40;4.10;;;3.70;;
36551;SDS011;22559;54.176;12.102;2022-11-04T11:25:57;4.10;;;3.70;;
36551;SDS011;22559;54.176;12.102;2022-11-04T11:28:24;3.90;;;3.60;;
36551;SDS011;22559;54.176;12.102;2022-11-04T11:33:28;4.63;;;3.33;;
36551;SDS011;22559;54.176;12.102;2022-11-04T11:35:57;3.63;;;3.33;;
36551;SDS011;22559;54.176;12.102;2022-11-04T11:38:27;4.03;;;3.67;;
36551;SDS011;22559;54.176;12.102;2022-11-04T11:43:33;6.23;;;3.67;;
36551;SDS011;22559;54.176;12.102;2022-11-04T11:46:00;3.80;;;3.43;;
36551;SDS011;22559;54.176;12.102;2022-11-04T11:48:28;4.00;;;3.37;;
36551;SDS011;22559;54.176;12.102;2022-11-04T11:50:57;3.60;;;3.40;;
36551;SDS011;22559;54.176;12.102;2022-11-04T11:53:24;3.57;;;3.27;;
36551;SDS011;22559;54.176;12.102;2022-11-04T11:55:56;4.67;;;3.63;;
36551;SDS011;22559;54.176;12.102;2022-11-04T12:03:58;5.00;;;4.30;;
36551;SDS011;22559;54.176;12.102;2022-11-04T12:12:00;4.57;;;3.87;;
36551;SDS011;22559;54.176;12.102;2022-11-04T12:20:02;4.03;;;3.73;;
36551;SDS011;22559;54.176;12.102;2022-11-04T12:23:14;3.60;;;3.30;;
36551;SDS011;22559;54.176;12.102;2022-11-04T12:39:18;4.20;;;3.90;;
36551;SDS011;22559;54.176;12.102;2022-11-04T12:42:00;5.07;;;4.17;;
36551;SDS011;22559;54.176;12.102;2022-11-04T12:47:14;4.57;;;4.17;;
36551;SDS011;22559;54.176;12.102;2022-11-04T12:52:45;5.83;;;4.60;;
36551;SDS011;22559;54.176;12.102;2022-11-04T12:58:00;6.50;;;4.30;;
36551;SDS011;22559;54.176;12.102;2022-11-04T13:00:33;4.73;;;4.33;;
36551;SDS011;22559;54.176;12.102;2022-11-04T13:08:24;5.83;;;5.20;;
36551;SDS011;22559;54.176;12.102;2022-11-04T13:14:08;8.33;;;7.47;;
36551;SDS011;22559;54.176;12.102;2022-11-04T13:16:45;13.57;;;9.67;;
36551;SDS011;22559;54.176;12.102;2022-11-04T13:19:23;10.27;;;7.67;;
36551;SDS011;22559;54.176;12.102;2022-11-04T13:21:55;10.27;;;8.17;;
36551;SDS011;22559;54.176;12.102;2022-11-04T13:26:48;14.60;;;11.90;;
36551;SDS011;22559;54.176;12.102;2022-11-04T13:29:16;11.70;;;10.53;;
36551;SDS011;22559;54.176;12.102;2022-11-04T13:37:03;14.33;;;11.33;;
36551;SDS011;22559;54.176;12.102;2022-11-04T13:39:33;15.63;;;11.67;;
36551;SDS011;22559;54.176;12.102;2022-11-04T13:44:46;12.77;;;11.47;;
36551;SDS011;22559;54.176;12.102;2022-11-04T13:47:21;8.90;;;8.00;;
36551;SDS011;22559;54.176;12.102;2022-11-04T13:50:00;10.50;;;8.67;;
36551;SDS011;22559;54.176;12.102;2022-11-04T13:52:27;5.70;;;5.20;;
36551;SDS011;22559;54.176;12.102;2022-11-04T13:54:56;9.93;;;8.30;;
36551;SDS011;22559;54.176;12.102;2022-11-04T13:57:30;5.53;;;5.03;;
36551;SDS011;22559;54.176;12.102;2022-11-04T14:18:49;4.53;;;4.13;;
36551;SDS011;22559;54.176;12.102;2022-11-04T14:21:17;6.33;;;4.93;;
36551;SDS011;22559;54.176;12.102;2022-11-04T14:23:46;5.53;;;4.97;;
36551;SDS011;22559;54.176;12.102;2022-11-04T14:26:16;4.50;;;4.10;;
36551;SDS011;22559;54.176;12.102;2022-11-04T14:29:06;4.60;;;4.20;;
36551;SDS011;22559;54.176;12.102;2022-11-04T14:31:47;7.27;;;4.13;;
36551;SDS011;22559;54.176;12.102;2022-11-04T14:34:26;6.77;;;4.10;;
36551;SDS011;22559;54.176;12.102;2022-11-04T14:36:57;5.50;;;4.27;;
36551;SDS011;22559;54.176;12.102;2022-11-04T14:39:29;6.30;;;4.80;;
36551;SDS011;22559;54.176;12.102;2022-11-04T14:42:01;5.57;;;4.43;;
36551;SDS011;22559;54.176;12.102;2022-11-04T14:44:29;8.07;;;5.40;;
36551;SDS011;22559;54.176;12.102;2022-11-04T14:47:16;5.07;;;4.63;;
36551;SDS011;22559;54.176;12.102;2022-11-04T14:52:37;6.00;;;5.40;;
36551;SDS011;22559;54.176;12.102;2022-11-04T14:55:25;6.50;;;5.50;;
36551;SDS011;22559;54.176;12.102;2022-11-04T14:57:53;6.80;;;6.13;;
36551;SDS011;22559;54.176;12.102;2022-11-04T15:00:27;6.07;;;5.47;;
36551;SDS011;22559;54.176;12.102;2022-11-04T15:03:00;5.57;;;5.07;;
36551;SDS011;22559;54.176;12.102;2022-11-04T15:05:34;4.73;;;4.30;;
36551;SDS011;22559;54.176;12.102;2022-11-04T15:08:22;6.27;;;5.53;;
36551;SDS011;22559;54.176;12.102;2022-11-04T15:13:38;9.67;;;6.00;;
36551;SDS011;22559;54.176;12.102;2022-11-04T15:16:18;7.80;;;5.67;;
36551;SDS011;22559;54.176;12.102;2022-11-04T15:18:49;5.83;;;5.30;;
36551;SDS011;22559;54.176;12.102;2022-11-04T15:21:17;8.73;;;6.10;;
36551;SDS011;22559;54.176;12.102;2022-11-04T15:23:44;6.90;;;6.20;;
36551;SDS011;22559;54.176;12.102;2022-11-04T15:26:25;7.03;;;6.23;;
36551;SDS011;22559;54.176;12.102;2022-11-04T15:28:53;6.23;;;5.57;;
36551;SDS011;22559;54.176;12.102;2022-11-04T15:31:20;6.73;;;6.13;;
36551;SDS011;22559;54.176;12.102;2022-11-04T15:33:49;7.67;;;6.80;;
36551;SDS011;22559;54.176;12.102;2022-11-04T15:36:20;9.47;;;7.07;;
36551;SDS011;22559;54.176;12.102;2022-11-04T15:39:07;9.77;;;6.93;;
36551;SDS011;22559;54.176;12.102;2022-11-04T15:41:45;9.37;;;6.77;;
36551;SDS011;22559;54.176;12.102;2022-11-04T15:44:33;8.40;;;7.03;;
36551;SDS011;22559;54.176;12.102;2022-11-04T15:47:01;10.77;;;7.10;;
36551;SDS011;22559;54.176;12.102;2022-11-04T15:49:43;7.63;;;6.87;;
36551;SDS011;22559;54.176;12.102;2022-11-04T15:52:17;7.33;;;6.57;;
36551;SDS011;22559;54.176;12.102;2022-11-04T15:54:49;6.80;;;6.20;;
36551;SDS011;22559;54.176;12.102;2022-11-04T15:57:21;7.07;;;6.37;;
36551;SDS011;22559;54.176;12.102;2022-11-04T16:02:27;6.60;;;5.80;;
36551;SDS011;22559;54.176;12.102;2022-11-04T16:05:39;6.73;;;6.03;;
36551;SDS011;22559;54.176;12.102;2022-11-04T16:07:47;6.50;;;5.53;;
36551;SDS011;22559;54.176;12.102;2022-11-04T16:10:28;9.07;;;6.33;;
36551;SDS011;22559;54.176;12.102;2022-11-04T16:12:55;6.40;;;5.80;;
36551;SDS011;22559;54.176;12.102;2022-11-04T16:15:29;9.03;;;6.30;;
36551;SDS011;22559;54.176;12.102;2022-11-04T16:17:55;9.37;;;7.73;;
36551;SDS011;22559;54.176;12.102;2022-11-04T16:20:20;6.47;;;5.87;;
36551;SDS011;22559;54.176;12.102;2022-11-04T16:22:46;6.97;;;6.27;;
36551;SDS011;22559;54.176;12.102;2022-11-04T16:25:19;8.00;;;7.00;;
36551;SDS011;22559;54.176;12.102;2022-11-04T16:27:47;8.27;;;7.30;;
36551;SDS011;22559;54.176;12.102;2022-11-04T16:30:20;7.80;;;6.57;;
36551;SDS011;22559;54.176;12.102;2022-11-04T16:32:48;9.83;;;6.63;;
36551;SDS011;22559;54.176;12.102;2022-11-04T16:35:18;7.40;;;6.70;;
36551;SDS011;22559;54.176;12.102;2022-11-04T16:37:46;7.87;;;6.63;;
36551;SDS011;22559;54.176;12.102;2022-11-04T16:40:12;8.53;;;6.77;;
36551;SDS011;22559;54.176;12.102;2022-11-04T16:42:38;7.93;;;7.10;;
36551;SDS011;22559;54.176;12.102;2022-11-04T16:45:04;7.63;;;6.80;;
36551;SDS011;22559;54.176;12.102;2022-11-04T16:47:34;8.57;;;7.67;;
36551;SDS011;22559;54.176;12.102;2022-11-04T16:50:05;8.87;;;7.20;;
36551;SDS011;22559;54.176;12.102;2022-11-04T16:52:38;8.37;;;7.30;;
36551;SDS011;22559;54.176;12.102;2022-11-04T16:55:04;8.43;;;7.03;;
36551;SDS011;22559;54.176;12.102;2022-11-04T16:57:30;9.30;;;7.90;;
36551;SDS011;22559;54.176;12.102;2022-11-04T16:59:56;8.67;;;7.37;;
36551;SDS011;22559;54.176;12.102;2022-11-04T17:04:55;9.17;;;7.83;;
36551;SDS011;22559;54.176;12.102;2022-11-04T17:07:22;8.47;;;7.60;;
36551;SDS011;22559;54.176;12.102;2022-11-04T17:09:48;11.70;;;8.37;;
36551;SDS011;22559;54.176;12.102;2022-11-04T17:12:14;12.20;;;7.87;;
36551;SDS011;22559;54.176;12.102;2022-11-04T17:14:39;8.20;;;7.00;;
36551;SDS011;22559;54.176;12.102;2022-11-04T17:17:05;10.07;;;8.13;;
36551;SDS011;22559;54.176;12.102;2022-11-04T17:19:32;11.43;;;8.77;;
36551;SDS011;22559;54.176;12.102;2022-11-04T17:21:58;12.80;;;9.80;;
36551;SDS011;22559;54.176;12.102;2022-11-04T17:24:26;10.93;;;8.30;;
36551;SDS011;22559;54.176;12.102;2022-11-04T17:26:52;12.17;;;8.10;;
36551;SDS011;22559;54.176;12.102;2022-11-04T17:29:18;11.50;;;8.43;;
36551;SDS011;22559;54.176;12.102;2022-11-04T17:31:43;7.57;;;6.60;;
36551;SDS011;22559;54.176;12.102;2022-11-04T17:34:09;8.97;;;6.60;;
36551;SDS011;22559;54.176;12.102;2022-11-04T17:36:35;8.97;;;6.70;;
36551;SDS011;22559;54.176;12.102;2022-11-04T17:39:01;9.20;;;7.63;;
36551;SDS011;22559;54.176;12.102;2022-11-04T17:41:26;10.33;;;6.83;;